AirNav   Air Wisconsin pilot careers
 
 891 users online  

U48 Coxs Well Airport
Atomic City, Idaho, USA


FAA INFORMATION EFFECTIVE 01 FEBRUARY 2018

Location

FAA Identifier: U48
Lat/Long: 43-13-03.9000N / 113-13-39.2000W
43-13.065000N / 113-13.653333W
43.2177500 / -113.2275556
(estimated)
Elevation: 5048 ft. / 1539 m (estimated)
Variation: 16E (1985)
From city: 23 miles SW of ATOMIC CITY, ID
Time zone: UTC -7 (UTC -6 during Daylight Saving Time)
Zip code: 83210

Airport Operations

Airport use: Open to the public
Activation date: 06/1951
Control tower: no
ARTCC: SALT LAKE CITY CENTER
FSS: BOISE FLIGHT SERVICE STATION
NOTAMs facility: BOI (NOTAM-D service available)
Attendance: UNATNDD
Wind indicator: yes
Segmented circle: yes

Airport Communications

CTAF: 122.9

Nearby radio navigation aids

VOR radial/distance  VOR name  Freq  Var
PIHr293/32.7POCATELLO VOR/DME112.6017E

Airport Services

Parking: tiedowns
Airframe service: NONE
Powerplant service: NONE
Bottled oxygen: NONE
Bulk oxygen: NONE

Runway Information

Runway 7/25

Dimensions: 2700 x 100 ft. / 823 x 30 m
Surface: turf, in good condition
Runway edge markings: 07/25 EDGES & THLDS MKD WITH WHITE ROCK.
Gradient: E
RUNWAY 7  RUNWAY 25
Latitude: 43-13.040833N43-13.089500N
Longitude: 113-13.956000W113-13.351833W
Elevation: 5028.0 ft.5048.0 ft.
Gradient: 0.7% UP0.3%
Traffic pattern: leftleft
Runway heading: 067 magnetic, 083 true247 magnetic, 263 true
Obstructions: 14 ft. road, 80 ft. left of centerline
14' RD AT 50' ON CNTRLN.
7 ft. fence, 170 ft. from runway, 24:1 slope to clear

Airport Ownership and Management from official FAA records

Ownership: Publicly-owned
Owner: STATE OF ID,DIV OF AERO.
P O BOX 7129
BOISE, ID 83707-1129
Phone 208-334-8775
Manager: DIV ADMIN
P OBOX 7129
BOISE, ID 83707-1129
Phone 208-334-8775

Airport Operational Statistics

Aircraft operations: avg 33/month *
100% transient general aviation
* for 12-month period ending 02 June 2016

Additional Remarks

NO WINTER MAINTENANCE.
RY 07/25 SFC MAY BE POOR DUE TO DAMAGE BY LIVESTOCK; GROUND VEHICLES AND RODENTS.

Instrument Procedures

There are no published instrument procedures at U48.

Some nearby airports with instrument procedures:

KAOC - Arco-Butte County Airport (24 nm N)
KPIH - Pocatello Regional Airport (33 nm SE)
U02 - McCarley Field Airport (38 nm E)
KBYI - Burley Municipal Airport (47 nm SW)
KSUN - Friedman Memorial Airport (50 nm W)
 
Loc | Ops | Rwys | IFR | FBO | Links
Com | Nav | Svcs | Stats | Notes

AirNav Hotels Sweepstakes
 
Area around U48 (Coxs Well Airport)
 
Road maps at: MapQuest Bing Google
 
Aerial photo
No photo
 
Sectional chart

 
Airport distance calculator
Flying to Coxs Well Airport? Find the distance to fly.

From to U48

Sunrise and sunset
Times for 20-Feb-2018
 Local
(UTC-7)
 Zulu
(UTC)
Morning civil twilight06:5513:55
Sunrise07:2414:24
Sunset18:0901:09
Evening civil twilight18:3801:38

Current date and time
Zulu (UTC)  21-Feb-2018 03:49:09
Local (UTC-7)  20-Feb-2018 20:49:09
 
METAR
KPIH 
34nm SE 
210253Z 17008KT 10SM CLR M14/M19 A3013 RMK AO2 SLP273 T11391189 51007
KBYI 
47nm SW 
210253Z AUTO 11004KT 10SM CLR M11/M16 A3010 RMK AO2 SLP252 T11061156 53003
KSUN 
49nm W 
210253Z 30003KT 10SM SKC M11/M18 A3005
TAF
KPIH 
34nm SE 
202003Z 2020/2118 22015G25KT 6SM BLSN BKN020 BKN035 FM210300 18010KT P6SM SCT020 BKN050
NOTAMs
Click for the latest NOTAMs
NOTAMs are issued by the DoD/FAA and will open in a separate window not controlled by AirNav.

 

 
 

Would you like to see your business listed on this page?

 If your business provides an interesting product or service to pilots, flight crews, aircraft, or users of the Coxs Well Airport, you should consider listing it here.  To start the listing process, click on the button below
 
Add a business
 

Other Pages about Coxs Well Airport

Update a link
 
Copyright © AirNav, LLC. All rights reserved. Privacy Policy  Contact